sensor_id;sensor_type;location;lat;lon;timestamp;P1;durP1;ratioP1;P2;durP2;ratioP2
25319;SDS011;13256;49.012;8.610;2022-12-07T00:02:03;15.93;;;6.88;;
25319;SDS011;13256;49.012;8.610;2022-12-07T00:04:30;16.58;;;7.15;;
25319;SDS011;13256;49.012;8.610;2022-12-07T00:06:57;15.48;;;7.55;;
25319;SDS011;13256;49.012;8.610;2022-12-07T00:09:25;19.60;;;9.00;;
25319;SDS011;13256;49.012;8.610;2022-12-07T00:11:57;21.73;;;8.95;;
25319;SDS011;13256;49.012;8.610;2022-12-07T00:14:29;15.30;;;7.57;;
25319;SDS011;13256;49.012;8.610;2022-12-07T00:16:58;16.88;;;8.10;;
25319;SDS011;13256;49.012;8.610;2022-12-07T00:19:25;13.50;;;7.22;;
25319;SDS011;13256;49.012;8.610;2022-12-07T00:21:57;14.60;;;7.15;;
25319;SDS011;13256;49.012;8.610;2022-12-07T00:24:26;13.15;;;6.80;;
25319;SDS011;13256;49.012;8.610;2022-12-07T00:26:53;13.65;;;6.65;;
25319;SDS011;13256;49.012;8.610;2022-12-07T00:29:20;14.23;;;7.40;;
25319;SDS011;13256;49.012;8.610;2022-12-07T00:31:54;10.77;;;6.10;;
25319;SDS011;13256;49.012;8.610;2022-12-07T00:34:22;13.80;;;6.85;;
25319;SDS011;13256;49.012;8.610;2022-12-07T00:36:48;12.35;;;7.25;;
25319;SDS011;13256;49.012;8.610;2022-12-07T00:39:18;12.55;;;7.13;;
25319;SDS011;13256;49.012;8.610;2022-12-07T00:41:44;13.25;;;6.85;;
25319;SDS011;13256;49.012;8.610;2022-12-07T00:44:13;11.75;;;6.80;;
25319;SDS011;13256;49.012;8.610;2022-12-07T00:46:42;13.98;;;6.90;;
25319;SDS011;13256;49.012;8.610;2022-12-07T00:49:12;15.15;;;6.05;;
25319;SDS011;13256;49.012;8.610;2022-12-07T00:51:40;15.60;;;7.78;;
25319;SDS011;13256;49.012;8.610;2022-12-07T00:54:09;12.65;;;6.68;;
25319;SDS011;13256;49.012;8.610;2022-12-07T00:56:35;13.65;;;7.10;;
25319;SDS011;13256;49.012;8.610;2022-12-07T00:59:03;14.85;;;6.95;;
25319;SDS011;13256;49.012;8.610;2022-12-07T01:01:33;13.40;;;7.35;;
25319;SDS011;13256;49.012;8.610;2022-12-07T01:04:10;15.20;;;7.35;;
25319;SDS011;13256;49.012;8.610;2022-12-07T01:06:39;14.30;;;6.85;;
25319;SDS011;13256;49.012;8.610;2022-12-07T01:09:06;12.48;;;7.13;;
25319;SDS011;13256;49.012;8.610;2022-12-07T01:11:33;12.90;;;6.32;;
25319;SDS011;13256;49.012;8.610;2022-12-07T01:14:00;16.88;;;6.80;;
25319;SDS011;13256;49.012;8.610;2022-12-07T01:16:29;15.00;;;6.97;;
25319;SDS011;13256;49.012;8.610;2022-12-07T01:19:00;11.18;;;6.60;;
25319;SDS011;13256;49.012;8.610;2022-12-07T01:21:35;11.15;;;6.90;;
25319;SDS011;13256;49.012;8.610;2022-12-07T01:26:59;14.43;;;7.35;;
25319;SDS011;13256;49.012;8.610;2022-12-07T01:29:28;12.32;;;6.88;;
25319;SDS011;13256;49.012;8.610;2022-12-07T01:31:56;13.35;;;6.93;;
25319;SDS011;13256;49.012;8.610;2022-12-07T01:34:24;12.52;;;7.03;;
25319;SDS011;13256;49.012;8.610;2022-12-07T01:36:53;13.57;;;7.13;;
25319;SDS011;13256;49.012;8.610;2022-12-07T01:39:23;13.55;;;6.68;;
25319;SDS011;13256;49.012;8.610;2022-12-07T01:41:49;10.73;;;6.72;;
25319;SDS011;13256;49.012;8.610;2022-12-07T01:44:18;12.20;;;6.35;;
25319;SDS011;13256;49.012;8.610;2022-12-07T01:46:50;13.82;;;6.82;;
25319;SDS011;13256;49.012;8.610;2022-12-07T01:54:45;12.73;;;6.63;;
25319;SDS011;13256;49.012;8.610;2022-12-07T01:57:14;13.07;;;7.15;;
25319;SDS011;13256;49.012;8.610;2022-12-07T01:59:45;11.05;;;6.57;;
25319;SDS011;13256;49.012;8.610;2022-12-07T02:02:19;12.00;;;7.20;;
25319;SDS011;13256;49.012;8.610;2022-12-07T02:04:51;12.75;;;6.97;;
25319;SDS011;13256;49.012;8.610;2022-12-07T02:07:22;13.43;;;7.55;;
25319;SDS011;13256;49.012;8.610;2022-12-07T02:09:49;12.63;;;6.75;;
25319;SDS011;13256;49.012;8.610;2022-12-07T02:12:16;17.77;;;6.70;;
25319;SDS011;13256;49.012;8.610;2022-12-07T02:14:43;13.02;;;6.70;;
25319;SDS011;13256;49.012;8.610;2022-12-07T02:30:52;12.15;;;7.05;;
25319;SDS011;13256;49.012;8.610;2022-12-07T02:33:26;11.85;;;6.72;;
25319;SDS011;13256;49.012;8.610;2022-12-07T02:38:43;12.57;;;6.43;;
25319;SDS011;13256;49.012;8.610;2022-12-07T02:41:20;12.35;;;6.90;;
25319;SDS011;13256;49.012;8.610;2022-12-07T02:44:13;12.27;;;6.55;;
25319;SDS011;13256;49.012;8.610;2022-12-07T02:46:57;14.48;;;6.63;;
25319;SDS011;13256;49.012;8.610;2022-12-07T02:49:29;13.77;;;6.97;;
25319;SDS011;13256;49.012;8.610;2022-12-07T02:51:57;11.35;;;6.82;;
25319;SDS011;13256;49.012;8.610;2022-12-07T02:54:28;14.07;;;6.85;;
25319;SDS011;13256;49.012;8.610;2022-12-07T03:00:17;14.65;;;7.78;;
25319;SDS011;13256;49.012;8.610;2022-12-07T03:02:56;15.38;;;8.07;;
25319;SDS011;13256;49.012;8.610;2022-12-07T03:11:22;13.55;;;6.40;;
25319;SDS011;13256;49.012;8.610;2022-12-07T03:13:53;11.68;;;6.88;;
25319;SDS011;13256;49.012;8.610;2022-12-07T03:16:41;12.93;;;7.15;;
25319;SDS011;13256;49.012;8.610;2022-12-07T03:19:13;11.13;;;6.28;;
25319;SDS011;13256;49.012;8.610;2022-12-07T03:21:53;12.45;;;6.15;;
25319;SDS011;13256;49.012;8.610;2022-12-07T03:24:27;14.70;;;6.93;;
25319;SDS011;13256;49.012;8.610;2022-12-07T03:27:04;11.05;;;5.97;;
25319;SDS011;13256;49.012;8.610;2022-12-07T03:29:40;13.10;;;6.85;;
25319;SDS011;13256;49.012;8.610;2022-12-07T03:35:31;12.57;;;6.57;;
25319;SDS011;13256;49.012;8.610;2022-12-07T03:38:23;13.50;;;6.70;;
25319;SDS011;13256;49.012;8.610;2022-12-07T03:41:01;12.80;;;6.47;;
25319;SDS011;13256;49.012;8.610;2022-12-07T03:43:37;11.00;;;5.68;;
25319;SDS011;13256;49.012;8.610;2022-12-07T03:46:27;11.27;;;7.18;;
25319;SDS011;13256;49.012;8.610;2022-12-07T03:57:25;12.50;;;6.30;;
25319;SDS011;13256;49.012;8.610;2022-12-07T03:59:54;13.82;;;6.38;;
25319;SDS011;13256;49.012;8.610;2022-12-07T04:02:23;11.18;;;6.35;;
25319;SDS011;13256;49.012;8.610;2022-12-07T04:04:53;11.95;;;6.15;;
25319;SDS011;13256;49.012;8.610;2022-12-07T04:07:20;16.48;;;8.05;;
25319;SDS011;13256;49.012;8.610;2022-12-07T04:09:48;12.57;;;7.32;;
25319;SDS011;13256;49.012;8.610;2022-12-07T04:12:21;19.90;;;9.45;;
25319;SDS011;13256;49.012;8.610;2022-12-07T04:14:54;14.18;;;8.10;;
25319;SDS011;13256;49.012;8.610;2022-12-07T04:17:25;13.82;;;7.30;;
25319;SDS011;13256;49.012;8.610;2022-12-07T04:19:54;14.85;;;8.77;;
25319;SDS011;13256;49.012;8.610;2022-12-07T04:22:21;19.90;;;10.68;;
25319;SDS011;13256;49.012;8.610;2022-12-07T04:24:48;24.13;;;14.52;;
25319;SDS011;13256;49.012;8.610;2022-12-07T04:27:17;24.00;;;12.68;;
25319;SDS011;13256;49.012;8.610;2022-12-07T04:32:19;20.42;;;9.50;;
25319;SDS011;13256;49.012;8.610;2022-12-07T04:34:46;23.27;;;10.10;;
25319;SDS011;13256;49.012;8.610;2022-12-07T04:37:17;25.17;;;9.63;;
25319;SDS011;13256;49.012;8.610;2022-12-07T04:39:46;16.75;;;8.10;;
25319;SDS011;13256;49.012;8.610;2022-12-07T04:42:22;20.00;;;8.27;;
25319;SDS011;13256;49.012;8.610;2022-12-07T04:44:51;19.42;;;8.10;;
25319;SDS011;13256;49.012;8.610;2022-12-07T04:47:18;21.50;;;9.52;;
25319;SDS011;13256;49.012;8.610;2022-12-07T04:49:44;17.95;;;9.20;;
25319;SDS011;13256;49.012;8.610;2022-12-07T04:52:13;15.30;;;8.00;;
25319;SDS011;13256;49.012;8.610;2022-12-07T04:55:12;16.00;;;7.88;;
25319;SDS011;13256;49.012;8.610;2022-12-07T04:57:41;17.92;;;8.07;;
25319;SDS011;13256;49.012;8.610;2022-12-07T05:00:10;13.35;;;6.88;;
25319;SDS011;13256;49.012;8.610;2022-12-07T05:02:38;20.35;;;8.50;;
25319;SDS011;13256;49.012;8.610;2022-12-07T05:05:04;17.98;;;8.38;;
25319;SDS011;13256;49.012;8.610;2022-12-07T05:07:35;18.00;;;10.00;;
25319;SDS011;13256;49.012;8.610;2022-12-07T05:10:07;18.58;;;8.95;;
25319;SDS011;13256;49.012;8.610;2022-12-07T05:12:38;14.80;;;7.68;;
25319;SDS011;13256;49.012;8.610;2022-12-07T05:15:07;16.20;;;7.53;;
25319;SDS011;13256;49.012;8.610;2022-12-07T05:17:34;16.38;;;8.40;;
25319;SDS011;13256;49.012;8.610;2022-12-07T05:20:01;15.93;;;7.50;;
25319;SDS011;13256;49.012;8.610;2022-12-07T05:22:30;14.20;;;7.22;;
25319;SDS011;13256;49.012;8.610;2022-12-07T05:24:57;15.23;;;8.25;;
25319;SDS011;13256;49.012;8.610;2022-12-07T05:27:28;14.52;;;7.25;;
25319;SDS011;13256;49.012;8.610;2022-12-07T05:30:01;14.65;;;6.75;;
25319;SDS011;13256;49.012;8.610;2022-12-07T05:32:53;15.25;;;7.60;;
25319;SDS011;13256;49.012;8.610;2022-12-07T05:35:30;14.25;;;7.38;;
25319;SDS011;13256;49.012;8.610;2022-12-07T05:37:59;17.23;;;7.47;;
25319;SDS011;13256;49.012;8.610;2022-12-07T05:40:27;12.50;;;6.72;;
25319;SDS011;13256;49.012;8.610;2022-12-07T05:43:23;11.55;;;6.45;;
25319;SDS011;13256;49.012;8.610;2022-12-07T05:45:52;14.32;;;7.20;;
25319;SDS011;13256;49.012;8.610;2022-12-07T05:48:21;11.73;;;6.20;;
25319;SDS011;13256;49.012;8.610;2022-12-07T05:50:52;11.18;;;6.53;;
25319;SDS011;13256;49.012;8.610;2022-12-07T05:53:33;10.30;;;6.13;;
25319;SDS011;13256;49.012;8.610;2022-12-07T05:56:04;11.63;;;6.28;;
25319;SDS011;13256;49.012;8.610;2022-12-07T05:58:32;13.80;;;6.75;;
25319;SDS011;13256;49.012;8.610;2022-12-07T06:01:17;9.38;;;5.97;;
25319;SDS011;13256;49.012;8.610;2022-12-07T06:03:45;13.10;;;6.18;;
25319;SDS011;13256;49.012;8.610;2022-12-07T06:06:19;15.23;;;6.50;;
25319;SDS011;13256;49.012;8.610;2022-12-07T06:08:52;16.98;;;6.15;;
25319;SDS011;13256;49.012;8.610;2022-12-07T06:11:20;15.25;;;6.43;;
25319;SDS011;13256;49.012;8.610;2022-12-07T06:14:06;10.25;;;6.03;;
25319;SDS011;13256;49.012;8.610;2022-12-07T06:16:33;11.88;;;6.43;;
25319;SDS011;13256;49.012;8.610;2022-12-07T06:19:01;11.02;;;5.38;;
25319;SDS011;13256;49.012;8.610;2022-12-07T06:21:28;14.48;;;6.43;;
25319;SDS011;13256;49.012;8.610;2022-12-07T06:23:55;11.65;;;5.30;;
25319;SDS011;13256;49.012;8.610;2022-12-07T06:26:25;11.80;;;5.82;;
25319;SDS011;13256;49.012;8.610;2022-12-07T06:28:52;11.00;;;5.95;;
25319;SDS011;13256;49.012;8.610;2022-12-07T06:31:19;11.45;;;5.47;;
25319;SDS011;13256;49.012;8.610;2022-12-07T06:33:56;13.65;;;6.63;;
25319;SDS011;13256;49.012;8.610;2022-12-07T06:36:26;11.57;;;6.05;;
25319;SDS011;13256;49.012;8.610;2022-12-07T06:38:56;11.45;;;5.88;;
25319;SDS011;13256;49.012;8.610;2022-12-07T06:41:23;9.27;;;5.78;;
25319;SDS011;13256;49.012;8.610;2022-12-07T06:43:54;13.35;;;6.43;;
25319;SDS011;13256;49.012;8.610;2022-12-07T06:46:24;15.77;;;6.18;;
25319;SDS011;13256;49.012;8.610;2022-12-07T06:48:53;14.25;;;6.18;;
25319;SDS011;13256;49.012;8.610;2022-12-07T06:51:32;10.82;;;6.05;;
25319;SDS011;13256;49.012;8.610;2022-12-07T06:54:03;10.98;;;5.45;;
25319;SDS011;13256;49.012;8.610;2022-12-07T06:56:31;8.98;;;5.60;;
25319;SDS011;13256;49.012;8.610;2022-12-07T06:59:02;10.68;;;5.70;;
25319;SDS011;13256;49.012;8.610;2022-12-07T07:01:31;13.95;;;6.15;;
25319;SDS011;13256;49.012;8.610;2022-12-07T07:04:04;9.77;;;5.40;;
25319;SDS011;13256;49.012;8.610;2022-12-07T07:06:35;7.60;;;4.28;;
25319;SDS011;13256;49.012;8.610;2022-12-07T07:09:07;12.52;;;5.28;;
25319;SDS011;13256;49.012;8.610;2022-12-07T07:11:37;15.07;;;6.78;;
25319;SDS011;13256;49.012;8.610;2022-12-07T07:14:07;10.10;;;6.10;;
25319;SDS011;13256;49.012;8.610;2022-12-07T07:16:40;11.57;;;5.47;;
25319;SDS011;13256;49.012;8.610;2022-12-07T07:19:08;12.02;;;6.22;;
25319;SDS011;13256;49.012;8.610;2022-12-07T07:21:37;10.52;;;5.63;;
25319;SDS011;13256;49.012;8.610;2022-12-07T07:24:04;10.13;;;5.38;;
25319;SDS011;13256;49.012;8.610;2022-12-07T07:26:32;12.70;;;5.70;;
25319;SDS011;13256;49.012;8.610;2022-12-07T07:29:02;11.18;;;5.57;;
25319;SDS011;13256;49.012;8.610;2022-12-07T07:31:34;10.10;;;5.10;;
25319;SDS011;13256;49.012;8.610;2022-12-07T07:34:01;10.65;;;5.72;;
25319;SDS011;13256;49.012;8.610;2022-12-07T07:36:29;11.02;;;5.82;;
25319;SDS011;13256;49.012;8.610;2022-12-07T07:38:56;7.35;;;4.40;;
25319;SDS011;13256;49.012;8.610;2022-12-07T07:41:30;7.95;;;4.50;;
25319;SDS011;13256;49.012;8.610;2022-12-07T07:44:02;12.32;;;5.50;;
25319;SDS011;13256;49.012;8.610;2022-12-07T07:46:31;6.60;;;4.13;;
25319;SDS011;13256;49.012;8.610;2022-12-07T07:51:51;7.97;;;4.57;;
25319;SDS011;13256;49.012;8.610;2022-12-07T07:54:23;8.48;;;4.20;;
25319;SDS011;13256;49.012;8.610;2022-12-07T07:56:50;9.52;;;4.55;;
25319;SDS011;13256;49.012;8.610;2022-12-07T07:59:21;8.60;;;4.47;;
25319;SDS011;13256;49.012;8.610;2022-12-07T08:01:48;8.75;;;4.80;;
25319;SDS011;13256;49.012;8.610;2022-12-07T08:04:20;10.77;;;4.65;;
25319;SDS011;13256;49.012;8.610;2022-12-07T08:06:51;9.27;;;5.13;;
25319;SDS011;13256;49.012;8.610;2022-12-07T08:09:22;8.05;;;4.63;;
25319;SDS011;13256;49.012;8.610;2022-12-07T08:11:49;10.63;;;5.07;;
25319;SDS011;13256;49.012;8.610;2022-12-07T08:14:19;6.68;;;3.92;;
25319;SDS011;13256;49.012;8.610;2022-12-07T08:16:49;8.73;;;4.45;;
25319;SDS011;13256;49.012;8.610;2022-12-07T08:19:22;8.25;;;4.15;;
25319;SDS011;13256;49.012;8.610;2022-12-07T08:21:52;8.30;;;4.35;;
25319;SDS011;13256;49.012;8.610;2022-12-07T08:24:18;18.75;;;7.00;;
25319;SDS011;13256;49.012;8.610;2022-12-07T08:26:45;13.70;;;5.38;;
25319;SDS011;13256;49.012;8.610;2022-12-07T08:29:20;9.70;;;4.90;;
25319;SDS011;13256;49.012;8.610;2022-12-07T08:31:50;10.90;;;5.00;;
25319;SDS011;13256;49.012;8.610;2022-12-07T08:34:18;9.48;;;5.03;;
25319;SDS011;13256;49.012;8.610;2022-12-07T08:36:45;8.25;;;4.78;;
25319;SDS011;13256;49.012;8.610;2022-12-07T08:39:21;10.63;;;5.05;;
25319;SDS011;13256;49.012;8.610;2022-12-07T08:42:00;8.20;;;4.85;;
25319;SDS011;13256;49.012;8.610;2022-12-07T08:44:26;10.35;;;5.15;;
25319;SDS011;13256;49.012;8.610;2022-12-07T08:46:58;10.55;;;4.60;;
25319;SDS011;13256;49.012;8.610;2022-12-07T08:49:41;9.60;;;4.88;;
25319;SDS011;13256;49.012;8.610;2022-12-07T08:52:14;10.95;;;5.80;;
25319;SDS011;13256;49.012;8.610;2022-12-07T08:54:43;9.98;;;4.95;;
25319;SDS011;13256;49.012;8.610;2022-12-07T08:57:11;12.65;;;7.60;;
25319;SDS011;13256;49.012;8.610;2022-12-07T08:59:43;19.95;;;10.40;;
25319;SDS011;13256;49.012;8.610;2022-12-07T09:02:17;15.38;;;7.55;;
25319;SDS011;13256;49.012;8.610;2022-12-07T09:04:50;14.68;;;7.15;;
25319;SDS011;13256;49.012;8.610;2022-12-07T09:09:52;10.57;;;6.10;;
25319;SDS011;13256;49.012;8.610;2022-12-07T09:12:20;11.88;;;5.20;;
25319;SDS011;13256;49.012;8.610;2022-12-07T09:14:48;9.95;;;4.57;;
25319;SDS011;13256;49.012;8.610;2022-12-07T09:17:20;10.65;;;5.22;;
25319;SDS011;13256;49.012;8.610;2022-12-07T09:19:50;9.40;;;4.97;;
25319;SDS011;13256;49.012;8.610;2022-12-07T09:22:20;10.30;;;5.18;;
25319;SDS011;13256;49.012;8.610;2022-12-07T09:25:14;10.77;;;5.53;;
25319;SDS011;13256;49.012;8.610;2022-12-07T09:27:45;11.45;;;4.90;;
25319;SDS011;13256;49.012;8.610;2022-12-07T09:30:22;12.43;;;5.03;;
25319;SDS011;13256;49.012;8.610;2022-12-07T09:32:49;13.52;;;6.10;;
25319;SDS011;13256;49.012;8.610;2022-12-07T09:35:16;10.95;;;5.10;;
25319;SDS011;13256;49.012;8.610;2022-12-07T09:37:46;7.78;;;4.95;;
25319;SDS011;13256;49.012;8.610;2022-12-07T09:40:19;10.18;;;5.35;;
25319;SDS011;13256;49.012;8.610;2022-12-07T09:42:52;10.68;;;5.20;;
25319;SDS011;13256;49.012;8.610;2022-12-07T09:45:22;10.15;;;5.10;;
25319;SDS011;13256;49.012;8.610;2022-12-07T09:47:51;12.15;;;5.43;;
25319;SDS011;13256;49.012;8.610;2022-12-07T09:50:20;9.65;;;5.38;;
25319;SDS011;13256;49.012;8.610;2022-12-07T09:52:55;11.93;;;6.25;;
25319;SDS011;13256;49.012;8.610;2022-12-07T09:55:36;12.65;;;6.40;;
25319;SDS011;13256;49.012;8.610;2022-12-07T09:58:04;10.77;;;6.18;;
25319;SDS011;13256;49.012;8.610;2022-12-07T10:00:35;13.77;;;6.78;;
25319;SDS011;13256;49.012;8.610;2022-12-07T10:03:08;8.98;;;5.57;;
25319;SDS011;13256;49.012;8.610;2022-12-07T10:05:43;9.82;;;5.13;;
25319;SDS011;13256;49.012;8.610;2022-12-07T10:08:21;12.75;;;6.38;;
25319;SDS011;13256;49.012;8.610;2022-12-07T10:10:51;11.60;;;5.53;;
25319;SDS011;13256;49.012;8.610;2022-12-07T10:13:49;11.38;;;6.20;;
25319;SDS011;13256;49.012;8.610;2022-12-07T10:18:50;13.93;;;6.03;;
25319;SDS011;13256;49.012;8.610;2022-12-07T10:21:24;12.75;;;6.38;;
25319;SDS011;13256;49.012;8.610;2022-12-07T10:34:45;10.60;;;5.88;;
25319;SDS011;13256;49.012;8.610;2022-12-07T10:37:22;13.68;;;6.05;;
25319;SDS011;13256;49.012;8.610;2022-12-07T10:39:54;9.88;;;5.93;;
25319;SDS011;13256;49.012;8.610;2022-12-07T10:42:29;11.50;;;5.53;;
25319;SDS011;13256;49.012;8.610;2022-12-07T10:50:37;10.63;;;5.72;;
25319;SDS011;13256;49.012;8.610;2022-12-07T10:53:44;9.27;;;5.25;;
25319;SDS011;13256;49.012;8.610;2022-12-07T10:56:39;13.07;;;5.85;;
25319;SDS011;13256;49.012;8.610;2022-12-07T11:10:55;8.80;;;5.35;;
25319;SDS011;13256;49.012;8.610;2022-12-07T11:14:03;9.73;;;5.63;;
25319;SDS011;13256;49.012;8.610;2022-12-07T11:22:15;11.13;;;5.80;;
25319;SDS011;13256;49.012;8.610;2022-12-07T11:28:10;9.95;;;5.53;;
25319;SDS011;13256;49.012;8.610;2022-12-07T11:41:44;12.10;;;5.72;;
25319;SDS011;13256;49.012;8.610;2022-12-07T11:44:27;10.88;;;5.95;;
25319;SDS011;13256;49.012;8.610;2022-12-07T11:50:36;16.05;;;7.40;;
25319;SDS011;13256;49.012;8.610;2022-12-07T11:52:58;11.20;;;6.20;;
25319;SDS011;13256;49.012;8.610;2022-12-07T11:55:55;12.73;;;5.95;;
25319;SDS011;13256;49.012;8.610;2022-12-07T12:04:00;16.08;;;7.78;;
25319;SDS011;13256;49.012;8.610;2022-12-07T12:06:37;13.38;;;6.93;;
25319;SDS011;13256;49.012;8.610;2022-12-07T12:09:12;15.80;;;7.32;;
25319;SDS011;13256;49.012;8.610;2022-12-07T12:18:34;12.55;;;6.45;;
25319;SDS011;13256;49.012;8.610;2022-12-07T12:21:26;11.48;;;5.93;;
25319;SDS011;13256;49.012;8.610;2022-12-07T12:24:06;14.15;;;6.45;;
25319;SDS011;13256;49.012;8.610;2022-12-07T12:26:49;12.13;;;6.03;;
25319;SDS011;13256;49.012;8.610;2022-12-07T12:32:19;12.55;;;6.18;;
25319;SDS011;13256;49.012;8.610;2022-12-07T12:42:49;18.23;;;6.88;;
25319;SDS011;13256;49.012;8.610;2022-12-07T12:45:28;13.98;;;7.47;;
25319;SDS011;13256;49.012;8.610;2022-12-07T12:54:10;16.73;;;6.40;;
25319;SDS011;13256;49.012;8.610;2022-12-07T13:00:22;16.15;;;8.15;;
25319;SDS011;13256;49.012;8.610;2022-12-07T13:02:54;18.38;;;7.65;;
25319;SDS011;13256;49.012;8.610;2022-12-07T13:05:29;15.60;;;7.82;;
25319;SDS011;13256;49.012;8.610;2022-12-07T13:11:34;13.27;;;6.68;;
25319;SDS011;13256;49.012;8.610;2022-12-07T13:26:17;18.80;;;7.72;;
25319;SDS011;13256;49.012;8.610;2022-12-07T13:29:05;17.33;;;7.15;;
25319;SDS011;13256;49.012;8.610;2022-12-07T13:31:54;15.03;;;7.73;;
25319;SDS011;13256;49.012;8.610;2022-12-07T13:34:36;15.18;;;8.15;;
25319;SDS011;13256;49.012;8.610;2022-12-07T13:37:10;20.40;;;9.40;;
25319;SDS011;13256;49.012;8.610;2022-12-07T13:39:47;14.13;;;7.95;;
25319;SDS011;13256;49.012;8.610;2022-12-07T13:42:29;15.70;;;7.95;;
25319;SDS011;13256;49.012;8.610;2022-12-07T13:45:22;19.80;;;7.97;;
25319;SDS011;13256;49.012;8.610;2022-12-07T13:48:44;18.45;;;9.13;;
25319;SDS011;13256;49.012;8.610;2022-12-07T13:51:18;16.88;;;8.20;;
25319;SDS011;13256;49.012;8.610;2022-12-07T13:54:01;15.15;;;8.25;;
25319;SDS011;13256;49.012;8.610;2022-12-07T13:56:39;21.65;;;8.57;;
25319;SDS011;13256;49.012;8.610;2022-12-07T13:59:21;15.32;;;7.82;;
25319;SDS011;13256;49.012;8.610;2022-12-07T14:01:51;16.67;;;8.73;;
25319;SDS011;13256;49.012;8.610;2022-12-07T14:04:28;21.52;;;9.40;;
25319;SDS011;13256;49.012;8.610;2022-12-07T14:07:21;17.15;;;7.90;;
25319;SDS011;13256;49.012;8.610;2022-12-07T14:09:57;19.67;;;8.02;;
25319;SDS011;13256;49.012;8.610;2022-12-07T14:12:27;17.42;;;8.32;;
25319;SDS011;13256;49.012;8.610;2022-12-07T14:14:59;11.10;;;6.30;;
25319;SDS011;13256;49.012;8.610;2022-12-07T14:17:32;16.60;;;8.52;;
25319;SDS011;13256;49.012;8.610;2022-12-07T14:20:01;14.73;;;8.15;;
25319;SDS011;13256;49.012;8.610;2022-12-07T14:22:34;15.48;;;7.60;;
25319;SDS011;13256;49.012;8.610;2022-12-07T14:30:22;23.27;;;9.93;;
25319;SDS011;13256;49.012;8.610;2022-12-07T14:32:59;19.10;;;9.05;;
25319;SDS011;13256;49.012;8.610;2022-12-07T14:35:34;15.60;;;7.72;;
25319;SDS011;13256;49.012;8.610;2022-12-07T14:38:07;17.08;;;8.90;;
25319;SDS011;13256;49.012;8.610;2022-12-07T14:40:34;16.55;;;8.18;;
25319;SDS011;13256;49.012;8.610;2022-12-07T14:48:21;16.10;;;7.82;;
25319;SDS011;13256;49.012;8.610;2022-12-07T14:54:16;18.70;;;8.20;;
25319;SDS011;13256;49.012;8.610;2022-12-07T14:56:46;20.95;;;8.18;;
25319;SDS011;13256;49.012;8.610;2022-12-07T14:59:19;14.70;;;7.38;;
25319;SDS011;13256;49.012;8.610;2022-12-07T15:07:03;27.58;;;11.23;;
25319;SDS011;13256;49.012;8.610;2022-12-07T15:09:32;22.58;;;9.45;;
25319;SDS011;13256;49.012;8.610;2022-12-07T15:12:04;17.55;;;9.18;;
25319;SDS011;13256;49.012;8.610;2022-12-07T15:14:31;18.52;;;9.77;;
25319;SDS011;13256;49.012;8.610;2022-12-07T15:17:14;18.90;;;9.18;;
25319;SDS011;13256;49.012;8.610;2022-12-07T15:19:58;18.38;;;8.70;;
25319;SDS011;13256;49.012;8.610;2022-12-07T15:22:25;25.05;;;10.60;;
25319;SDS011;13256;49.012;8.610;2022-12-07T15:25:04;17.88;;;9.57;;
25319;SDS011;13256;49.012;8.610;2022-12-07T15:27:32;19.90;;;9.00;;
25319;SDS011;13256;49.012;8.610;2022-12-07T15:30:04;15.15;;;8.57;;
25319;SDS011;13256;49.012;8.610;2022-12-07T15:32:32;13.75;;;7.50;;
25319;SDS011;13256;49.012;8.610;2022-12-07T15:35:03;15.30;;;8.27;;
25319;SDS011;13256;49.012;8.610;2022-12-07T15:37:32;16.27;;;8.57;;
25319;SDS011;13256;49.012;8.610;2022-12-07T15:40:00;12.30;;;7.97;;
25319;SDS011;13256;49.012;8.610;2022-12-07T15:42:36;14.40;;;8.07;;
25319;SDS011;13256;49.012;8.610;2022-12-07T15:45:04;13.63;;;7.63;;
25319;SDS011;13256;49.012;8.610;2022-12-07T15:47:35;13.60;;;7.25;;
25319;SDS011;13256;49.012;8.610;2022-12-07T15:50:49;11.40;;;7.00;;
25319;SDS011;13256;49.012;8.610;2022-12-07T15:53:38;16.25;;;8.32;;
25319;SDS011;13256;49.012;8.610;2022-12-07T15:56:05;13.00;;;6.80;;
25319;SDS011;13256;49.012;8.610;2022-12-07T15:58:34;21.98;;;7.53;;
25319;SDS011;13256;49.012;8.610;2022-12-07T16:01:01;15.85;;;7.72;;
25319;SDS011;13256;49.012;8.610;2022-12-07T16:03:42;14.50;;;6.97;;
25319;SDS011;13256;49.012;8.610;2022-12-07T16:06:09;11.80;;;6.88;;
25319;SDS011;13256;49.012;8.610;2022-12-07T16:08:36;15.65;;;6.50;;
25319;SDS011;13256;49.012;8.610;2022-12-07T16:11:06;19.45;;;7.53;;
25319;SDS011;13256;49.012;8.610;2022-12-07T16:13:34;15.23;;;7.43;;
25319;SDS011;13256;49.012;8.610;2022-12-07T16:16:08;14.80;;;8.40;;
25319;SDS011;13256;49.012;8.610;2022-12-07T16:18:44;15.55;;;8.20;;
25319;SDS011;13256;49.012;8.610;2022-12-07T16:21:13;16.45;;;8.57;;
25319;SDS011;13256;49.012;8.610;2022-12-07T16:23:43;15.45;;;7.43;;
25319;SDS011;13256;49.012;8.610;2022-12-07T16:26:12;17.25;;;7.65;;
25319;SDS011;13256;49.012;8.610;2022-12-07T16:28:42;16.45;;;7.88;;
25319;SDS011;13256;49.012;8.610;2022-12-07T16:31:13;18.63;;;7.85;;
25319;SDS011;13256;49.012;8.610;2022-12-07T16:33:42;18.10;;;8.23;;
25319;SDS011;13256;49.012;8.610;2022-12-07T16:36:10;14.55;;;7.25;;
25319;SDS011;13256;49.012;8.610;2022-12-07T16:38:42;13.40;;;7.38;;
25319;SDS011;13256;49.012;8.610;2022-12-07T16:41:17;15.80;;;8.18;;
25319;SDS011;13256;49.012;8.610;2022-12-07T16:43:44;18.80;;;8.90;;
25319;SDS011;13256;49.012;8.610;2022-12-07T16:49:03;17.13;;;9.32;;
25319;SDS011;13256;49.012;8.610;2022-12-07T16:51:31;14.65;;;8.52;;
25319;SDS011;13256;49.012;8.610;2022-12-07T16:54:00;18.25;;;10.43;;
25319;SDS011;13256;49.012;8.610;2022-12-07T16:56:31;18.95;;;9.40;;
25319;SDS011;13256;49.012;8.610;2022-12-07T16:59:00;20.30;;;9.57;;
25319;SDS011;13256;49.012;8.610;2022-12-07T17:01:30;19.83;;;9.02;;
25319;SDS011;13256;49.012;8.610;2022-12-07T17:04:01;14.18;;;7.40;;
25319;SDS011;13256;49.012;8.610;2022-12-07T17:06:30;16.15;;;7.93;;
25319;SDS011;13256;49.012;8.610;2022-12-07T17:08:59;20.08;;;9.10;;
25319;SDS011;13256;49.012;8.610;2022-12-07T17:11:29;17.95;;;8.55;;
25319;SDS011;13256;49.012;8.610;2022-12-07T17:14:01;28.67;;;13.57;;
25319;SDS011;13256;49.012;8.610;2022-12-07T17:16:47;21.08;;;9.48;;
25319;SDS011;13256;49.012;8.610;2022-12-07T17:19:18;14.45;;;7.85;;
25319;SDS011;13256;49.012;8.610;2022-12-07T17:21:49;17.08;;;8.32;;
25319;SDS011;13256;49.012;8.610;2022-12-07T17:24:16;13.90;;;7.95;;
25319;SDS011;13256;49.012;8.610;2022-12-07T17:26:44;15.85;;;7.65;;
25319;SDS011;13256;49.012;8.610;2022-12-07T17:29:14;15.43;;;8.02;;
25319;SDS011;13256;49.012;8.610;2022-12-07T17:31:44;17.40;;;8.13;;
25319;SDS011;13256;49.012;8.610;2022-12-07T17:34:18;19.60;;;7.90;;
25319;SDS011;13256;49.012;8.610;2022-12-07T17:36:45;15.75;;;8.68;;
25319;SDS011;13256;49.012;8.610;2022-12-07T17:39:17;14.63;;;7.47;;
25319;SDS011;13256;49.012;8.610;2022-12-07T17:41:45;18.42;;;9.25;;
25319;SDS011;13256;49.012;8.610;2022-12-07T17:44:33;17.92;;;8.48;;
25319;SDS011;13256;49.012;8.610;2022-12-07T17:47:00;18.35;;;7.70;;
25319;SDS011;13256;49.012;8.610;2022-12-07T17:49:29;15.73;;;8.38;;
25319;SDS011;13256;49.012;8.610;2022-12-07T17:51:57;18.00;;;9.05;;
25319;SDS011;13256;49.012;8.610;2022-12-07T17:54:43;17.77;;;8.35;;
25319;SDS011;13256;49.012;8.610;2022-12-07T17:57:12;14.55;;;7.85;;
25319;SDS011;13256;49.012;8.610;2022-12-07T17:59:42;18.48;;;9.35;;
25319;SDS011;13256;49.012;8.610;2022-12-07T18:02:14;17.20;;;8.60;;
25319;SDS011;13256;49.012;8.610;2022-12-07T18:04:41;18.77;;;8.15;;
25319;SDS011;13256;49.012;8.610;2022-12-07T18:07:12;20.67;;;9.68;;